createdAt,value
2022-10-01T00:01:08.921Z,100219.81
2022-10-01T00:06:17.166Z,100212.91
2022-10-01T00:11:21.964Z,100210.50
2022-10-01T00:16:26.982Z,100204.78
2022-10-01T00:21:33.245Z,100194.88
2022-10-01T00:26:37.647Z,100189.00
2022-10-01T00:31:40.651Z,100179.88
2022-10-01T00:36:45.203Z,100160.13
2022-10-01T00:41:48.011Z,100159.72
2022-10-01T00:46:51.340Z,100167.03
2022-10-01T00:51:58.986Z,100145.91
2022-10-01T00:57:04.605Z,100138.31
2022-10-01T01:02:07.463Z,100134.66
2022-10-01T01:07:12.762Z,100127.25
2022-10-01T01:12:27.656Z,100127.66
2022-10-01T01:17:36.202Z,100123.16
2022-10-01T01:22:48.946Z,100111.38
2022-10-01T01:28:05.376Z,100110.41
2022-10-01T01:33:14.012Z,100106.53
2022-10-01T01:38:21.862Z,100099.06
2022-10-01T01:43:31.285Z,100095.03
2022-10-01T01:48:36.376Z,100085.25
2022-10-01T01:53:39.485Z,100068.75
2022-10-01T01:58:44.089Z,100048.50
2022-10-01T02:03:46.840Z,100042.91
2022-10-01T02:08:57.284Z,100028.88
2022-10-01T02:14:13.329Z,100020.66
2022-10-01T02:19:24.854Z,100008.19
2022-10-01T02:24:38.430Z,100006.09
2022-10-01T02:29:46.107Z,99997.69
2022-10-01T02:34:51.083Z,99986.09
2022-10-01T02:39:56.490Z,99981.09
2022-10-01T02:45:02.676Z,99974.72
2022-10-01T02:50:07.559Z,99967.44
2022-10-01T02:55:13.231Z,99958.75
2022-10-01T03:00:21.630Z,99961.34
2022-10-01T03:05:24.393Z,99945.09
2022-10-01T03:10:27.133Z,99938.34
2022-10-01T03:15:31.260Z,99939.25
2022-10-01T03:20:34.038Z,99933.91
2022-10-01T03:25:36.822Z,99920.22
2022-10-01T03:30:40.904Z,99925.06
2022-10-01T03:35:43.703Z,99923.13
2022-10-01T03:40:46.836Z,99920.94
2022-10-01T03:45:51.091Z,99912.22
2022-10-01T03:50:55.597Z,99913.56
2022-10-01T03:55:58.612Z,99910.13
2022-10-01T04:01:03.098Z,99911.00
2022-10-01T04:06:06.002Z,99897.66
2022-10-01T04:11:09.318Z,99889.53
2022-10-01T04:16:13.695Z,99880.38
2022-10-01T04:21:16.573Z,99867.34
2022-10-01T04:26:19.880Z,99856.09
2022-10-01T04:31:26.949Z,99840.41
2022-10-01T04:36:31.607Z,99827.72
2022-10-01T04:41:34.622Z,99814.31
2022-10-01T04:46:39.921Z,99796.84
2022-10-01T04:51:42.766Z,99788.00
2022-10-01T04:56:45.569Z,99777.66
2022-10-01T05:01:49.805Z,99772.81
2022-10-01T05:06:52.607Z,99748.81
2022-10-01T05:11:55.721Z,99741.28
2022-10-01T05:16:59.896Z,99742.34
2022-10-01T05:22:02.777Z,99738.63
2022-10-01T05:27:13.308Z,99721.03
2022-10-01T05:32:17.779Z,99720.81
2022-10-01T05:37:20.610Z,99718.34
2022-10-01T05:42:23.411Z,99714.94
2022-10-01T05:47:27.577Z,99715.13
2022-10-01T05:52:30.870Z,99722.00
2022-10-01T05:57:34.301Z,99709.97
2022-10-01T06:02:41.301Z,99706.66
2022-10-01T06:07:44.222Z,99703.34
2022-10-01T06:12:48.485Z,99698.66
2022-10-01T06:17:52.574Z,99687.50
2022-10-01T06:22:57.002Z,99686.53
2022-10-01T06:28:00.883Z,99675.22
2022-10-01T06:33:06.959Z,99662.13
2022-10-01T06:38:10.478Z,99653.16
2022-10-01T06:43:13.309Z,99637.00
2022-10-01T06:48:19.937Z,99639.34
2022-10-01T06:53:22.761Z,99635.00
2022-10-01T06:58:27.226Z,99633.59
2022-10-01T07:03:32.108Z,99639.53
2022-10-01T07:08:44.151Z,99624.97
2022-10-01T07:13:50.042Z,99633.75
2022-10-01T07:18:57.879Z,99630.63
2022-10-01T07:24:00.876Z,99623.84
2022-10-01T07:29:04.636Z,99625.38
2022-10-01T07:34:08.978Z,99613.06
2022-10-01T07:39:12.225Z,99601.72
2022-10-01T07:44:15.016Z,99593.66
2022-10-01T07:49:19.388Z,99585.25
2022-10-01T07:54:25.292Z,99584.19
2022-10-01T07:59:28.536Z,99578.16
2022-10-01T08:04:50.369Z,99570.38
2022-10-01T08:09:53.337Z,99571.19
2022-10-01T08:14:56.824Z,99565.13
2022-10-01T08:20:01.364Z,99572.84
2022-10-01T08:25:04.700Z,99567.59
2022-10-01T08:30:09.035Z,99559.34
2022-10-01T08:35:13.523Z,99553.66
2022-10-01T08:40:17.401Z,99561.31
2022-10-01T08:45:26.635Z,99551.13
2022-10-01T08:50:48.211Z,99540.63
2022-10-01T08:55:53.047Z,99545.13
2022-10-01T09:00:55.878Z,99548.59
2022-10-01T09:06:11.941Z,99545.44
2022-10-01T09:11:29.265Z,99553.13
2022-10-01T09:16:39.200Z,99551.47
2022-10-01T09:21:56.507Z,99550.84
2022-10-01T09:26:59.326Z,99554.88
2022-10-01T09:32:06.306Z,99562.50
2022-10-01T09:37:20.130Z,99565.53
2022-10-01T09:42:27.474Z,99568.03
2022-10-01T09:47:34.333Z,99563.75
2022-10-01T09:52:40.760Z,99565.09
2022-10-01T09:57:48.693Z,99570.19
2022-10-01T10:02:54.112Z,99565.72
2022-10-01T10:08:01.892Z,99577.44
2022-10-01T10:13:18.376Z,99575.06
2022-10-01T10:18:29.029Z,99579.44
2022-10-01T10:23:34.289Z,99585.59
2022-10-01T10:28:44.087Z,99600.97
2022-10-01T10:33:51.144Z,99595.44
2022-10-01T10:38:56.825Z,99608.84
2022-10-01T10:44:03.687Z,99604.84
2022-10-01T10:49:14.020Z,99605.31
2022-10-01T10:54:29.217Z,99610.34
2022-10-01T10:59:34.255Z,99613.25
2022-10-01T11:04:43.853Z,99620.47
2022-10-01T11:10:05.262Z,99613.22
2022-10-01T11:15:21.757Z,99617.13
2022-10-01T11:20:37.025Z,99617.44
2022-10-01T11:25:49.184Z,99609.19
2022-10-01T11:30:59.745Z,99618.91
2022-10-01T11:36:06.755Z,99635.78
2022-10-01T11:41:30.676Z,99640.19
2022-10-01T11:46:42.552Z,99631.41
2022-10-01T11:51:53.903Z,99627.31
2022-10-01T11:57:25.986Z,99625.78
2022-10-01T12:02:36.727Z,99627.72
2022-10-01T12:07:47.531Z,99626.88
2022-10-01T12:12:57.851Z,99622.25
2022-10-01T12:18:07.090Z,99630.06
2022-10-01T12:23:17.876Z,99624.19
2022-10-01T12:28:27.694Z,99631.25
2022-10-01T12:33:48.994Z,99642.69
2022-10-01T12:39:05.923Z,99653.06
2022-10-01T12:44:30.061Z,99644.97
2022-10-01T12:49:38.374Z,99646.22
2022-10-01T12:55:02.559Z,99659.63
2022-10-01T13:00:12.373Z,99657.44
2022-10-01T13:05:23.951Z,99679.69
2022-10-01T13:10:48.729Z,99686.88
2022-10-01T13:15:59.788Z,99725.28
2022-10-01T13:21:10.211Z,99756.88
2022-10-01T13:26:18.290Z,99759.91
2022-10-01T13:31:35.040Z,99756.97
2022-10-01T13:36:38.347Z,99763.50
2022-10-01T13:41:41.361Z,99759.66
2022-10-01T13:46:53.169Z,99787.84
2022-10-01T13:51:56.940Z,99762.38
2022-10-01T13:57:09.131Z,99764.50
2022-10-01T14:02:32.027Z,99770.63
2022-10-01T14:07:40.303Z,99762.97
2022-10-01T14:13:03.640Z,99765.53
2022-10-01T14:18:15.525Z,99766.25
2022-10-01T14:23:24.588Z,99783.91
2022-10-01T14:28:38.200Z,99787.31
2022-10-01T14:33:59.775Z,99788.72
2022-10-01T14:39:14.160Z,99794.72
2022-10-01T14:44:21.892Z,99796.84
2022-10-01T14:49:28.396Z,99798.63
2022-10-01T14:54:35.778Z,99814.22
2022-10-01T14:59:41.714Z,99822.81
2022-10-01T15:04:48.256Z,99831.47
2022-10-01T15:09:52.353Z,99831.44
2022-10-01T15:14:55.774Z,99832.34
2022-10-01T15:20:00.270Z,99842.59
2022-10-01T15:25:03.510Z,99853.91
2022-10-01T15:30:14.775Z,99856.50
2022-10-01T15:35:22.033Z,99861.00
2022-10-01T15:40:29.533Z,99874.97
2022-10-01T15:45:32.313Z,99870.25
2022-10-01T15:50:39.158Z,99874.72
2022-10-01T15:55:44.466Z,99876.00
2022-10-01T16:00:58.570Z,99900.72
2022-10-01T16:06:04.038Z,99895.88
2022-10-01T16:11:17.820Z,99909.31
2022-10-01T16:16:27.183Z,99925.63
2022-10-01T16:21:41.252Z,99922.81
2022-10-01T16:26:45.187Z,99938.09
2022-10-01T16:31:48.128Z,99947.53
2022-10-01T16:36:52.340Z,99958.53
2022-10-01T16:42:19.118Z,99962.25
2022-10-01T16:47:17.966Z,99968.50
2022-10-01T16:52:22.162Z,99993.91
2022-10-01T16:57:24.846Z,99993.19
2022-10-01T17:02:27.731Z,100002.38
2022-10-01T17:07:31.844Z,100021.13
2022-10-01T17:12:34.870Z,100028.41
2022-10-01T17:17:37.692Z,100028.91
2022-10-01T17:22:42.840Z,100047.06
2022-10-01T17:27:45.792Z,100050.09
2022-10-01T17:32:48.650Z,100065.34
2022-10-01T17:37:52.847Z,100075.41
2022-10-01T17:42:55.581Z,100088.38
2022-10-01T17:47:58.319Z,100101.16
2022-10-01T17:53:02.719Z,100114.47
2022-10-01T17:58:06.723Z,100123.19
2022-10-01T18:03:09.782Z,100129.44
2022-10-01T18:08:13.910Z,100139.88
2022-10-01T18:13:16.935Z,100147.34
2022-10-01T18:19:51.342Z,100156.91
2022-10-01T18:23:44.029Z,100164.16
2022-10-01T18:28:47.196Z,100177.34
2022-10-01T18:33:52.321Z,100180.19
2022-10-01T18:39:04.275Z,100176.22
2022-10-01T18:44:11.285Z,100199.88
2022-10-01T18:49:28.098Z,100206.88
2022-10-01T18:54:47.299Z,100213.03
2022-10-01T19:00:02.541Z,100222.09
2022-10-01T19:05:36.424Z,100228.16
2022-10-01T19:10:43.034Z,100237.34
2022-10-01T19:16:00.498Z,100246.56
2022-10-01T19:21:15.195Z,100253.38
2022-10-01T19:26:24.902Z,100260.81
2022-10-01T19:31:37.310Z,100260.34
2022-10-01T19:36:45.301Z,100266.94
2022-10-01T19:41:54.247Z,100275.13
2022-10-01T19:47:03.089Z,100284.47
2022-10-01T19:52:13.336Z,100291.22
2022-10-01T19:57:23.402Z,100291.69
2022-10-01T20:02:35.147Z,100290.78
2022-10-01T20:07:46.780Z,100305.47
2022-10-01T20:13:13.556Z,100311.34
2022-10-01T20:18:28.961Z,100325.09
2022-10-01T20:23:42.025Z,100332.00
2022-10-01T20:28:54.579Z,100342.25
2022-10-01T20:34:03.863Z,100348.59
2022-10-01T20:39:15.765Z,100350.56
2022-10-01T20:44:25.615Z,100356.25
2022-10-01T20:49:33.485Z,100366.97
2022-10-01T20:54:40.033Z,100368.13
2022-10-01T20:59:46.932Z,100380.84
2022-10-01T21:04:55.219Z,100378.50
2022-10-01T21:10:03.053Z,100386.09
2022-10-01T21:15:13.458Z,100389.91
2022-10-01T21:20:30.530Z,100391.88
2022-10-01T21:25:47.311Z,100408.81
2022-10-01T21:31:02.958Z,100416.28
2022-10-01T21:36:11.907Z,100430.50
2022-10-01T21:41:48.188Z,100438.31
2022-10-01T21:47:00.751Z,100447.69
2022-10-01T21:52:13.838Z,100450.41
2022-10-01T21:57:43.282Z,100472.00
2022-10-01T22:02:59.956Z,100466.56
2022-10-01T22:08:16.080Z,100460.09
2022-10-01T22:13:21.785Z,100464.97
2022-10-01T22:18:35.247Z,100470.25
2022-10-01T22:23:39.219Z,100493.97
2022-10-01T22:28:45.006Z,100506.56
2022-10-01T22:33:55.341Z,100508.28
2022-10-01T22:39:03.261Z,100503.53
2022-10-01T22:44:13.740Z,100502.66
2022-10-01T22:49:32.175Z,100501.44
2022-10-01T22:54:45.246Z,100498.38
2022-10-01T23:00:01.838Z,100506.38
2022-10-01T23:05:16.785Z,100511.41
2022-10-01T23:10:26.102Z,100523.53
2022-10-01T23:15:37.301Z,100528.00
2022-10-01T23:20:50.706Z,100522.88
2022-10-01T23:26:08.609Z,100520.50
2022-10-01T23:31:21.758Z,100516.00
2022-10-01T23:36:36.442Z,100521.59
2022-10-01T23:41:44.839Z,100535.16
2022-10-01T23:46:52.124Z,100543.91
2022-10-01T23:52:04.357Z,100552.88
2022-10-01T23:57:12.624Z,100552.78
